sensor_id;sensor_type;location;lat;lon;timestamp;P1;durP1;ratioP1;P2;durP2;ratioP2
52015;SDS011;38032;53.326;6.472;2023-02-22T00:01:20;43.92;;;21.40;;
52015;SDS011;38032;53.326;6.472;2023-02-22T00:03:59;44.78;;;22.33;;
52015;SDS011;38032;53.326;6.472;2023-02-22T00:06:26;41.10;;;21.55;;
52015;SDS011;38032;53.326;6.472;2023-02-22T00:08:53;44.45;;;22.00;;
52015;SDS011;38032;53.326;6.472;2023-02-22T00:11:19;42.65;;;21.50;;
52015;SDS011;38032;53.326;6.472;2023-02-22T00:13:45;44.95;;;23.67;;
52015;SDS011;38032;53.326;6.472;2023-02-22T00:16:16;39.25;;;20.75;;
52015;SDS011;38032;53.326;6.472;2023-02-22T00:18:43;46.70;;;24.10;;
52015;SDS011;38032;53.326;6.472;2023-02-22T00:21:10;47.53;;;23.27;;
52015;SDS011;38032;53.326;6.472;2023-02-22T00:23:39;47.38;;;23.35;;
52015;SDS011;38032;53.326;6.472;2023-02-22T00:26:11;48.72;;;23.02;;
52015;SDS011;38032;53.326;6.472;2023-02-22T00:28:43;48.17;;;23.63;;
52015;SDS011;38032;53.326;6.472;2023-02-22T00:31:12;46.70;;;22.83;;
52015;SDS011;38032;53.326;6.472;2023-02-22T00:33:38;49.53;;;25.25;;
52015;SDS011;38032;53.326;6.472;2023-02-22T00:36:05;50.08;;;23.75;;
52015;SDS011;38032;53.326;6.472;2023-02-22T00:38:32;47.17;;;23.35;;
52015;SDS011;38032;53.326;6.472;2023-02-22T00:40:58;53.72;;;24.90;;
52015;SDS011;38032;53.326;6.472;2023-02-22T00:43:24;45.67;;;23.00;;
52015;SDS011;38032;53.326;6.472;2023-02-22T00:45:50;50.00;;;24.55;;
52015;SDS011;38032;53.326;6.472;2023-02-22T00:48:16;48.92;;;22.85;;
52015;SDS011;38032;53.326;6.472;2023-02-22T00:50:42;50.22;;;23.52;;
52015;SDS011;38032;53.326;6.472;2023-02-22T00:53:08;45.95;;;22.02;;
52015;SDS011;38032;53.326;6.472;2023-02-22T00:55:35;48.63;;;22.17;;
52015;SDS011;38032;53.326;6.472;2023-02-22T00:58:02;42.47;;;20.55;;
52015;SDS011;38032;53.326;6.472;2023-02-22T01:00:31;46.85;;;22.88;;
52015;SDS011;38032;53.326;6.472;2023-02-22T01:03:06;42.38;;;21.15;;
52015;SDS011;38032;53.326;6.472;2023-02-22T01:05:34;44.58;;;21.73;;
52015;SDS011;38032;53.326;6.472;2023-02-22T01:08:03;46.25;;;21.30;;
52015;SDS011;38032;53.326;6.472;2023-02-22T01:10:31;42.83;;;20.42;;
52015;SDS011;38032;53.326;6.472;2023-02-22T01:12:58;44.80;;;21.75;;
52015;SDS011;38032;53.326;6.472;2023-02-22T01:15:26;42.30;;;20.90;;
52015;SDS011;38032;53.326;6.472;2023-02-22T01:17:55;41.58;;;19.67;;
52015;SDS011;38032;53.326;6.472;2023-02-22T01:20:22;45.40;;;22.17;;
52015;SDS011;38032;53.326;6.472;2023-02-22T01:22:51;42.72;;;20.50;;
52015;SDS011;38032;53.326;6.472;2023-02-22T01:25:20;44.03;;;21.23;;
52015;SDS011;38032;53.326;6.472;2023-02-22T01:27:47;40.63;;;19.45;;
52015;SDS011;38032;53.326;6.472;2023-02-22T01:30:16;40.97;;;19.40;;
52015;SDS011;38032;53.326;6.472;2023-02-22T01:32:45;39.05;;;19.60;;
52015;SDS011;38032;53.326;6.472;2023-02-22T01:35:12;39.35;;;19.13;;
52015;SDS011;38032;53.326;6.472;2023-02-22T01:37:42;39.10;;;19.42;;
52015;SDS011;38032;53.326;6.472;2023-02-22T01:40:10;42.75;;;18.55;;
52015;SDS011;38032;53.326;6.472;2023-02-22T01:42:40;37.35;;;18.50;;
52015;SDS011;38032;53.326;6.472;2023-02-22T01:47:57;37.88;;;18.17;;
52015;SDS011;38032;53.326;6.472;2023-02-22T01:50:28;38.92;;;18.92;;
52015;SDS011;38032;53.326;6.472;2023-02-22T01:52:58;35.05;;;17.33;;
52015;SDS011;38032;53.326;6.472;2023-02-22T01:55:25;36.42;;;17.98;;
52015;SDS011;38032;53.326;6.472;2023-02-22T01:57:53;36.05;;;16.88;;
52015;SDS011;38032;53.326;6.472;2023-02-22T02:00:19;35.67;;;17.13;;
52015;SDS011;38032;53.326;6.472;2023-02-22T02:02:47;27.95;;;14.27;;
52015;SDS011;38032;53.326;6.472;2023-02-22T02:05:18;29.15;;;14.82;;
52015;SDS011;38032;53.326;6.472;2023-02-22T02:07:44;27.58;;;14.45;;
52015;SDS011;38032;53.326;6.472;2023-02-22T02:10:11;24.92;;;13.73;;
52015;SDS011;38032;53.326;6.472;2023-02-22T02:12:40;24.73;;;13.00;;
52015;SDS011;38032;53.326;6.472;2023-02-22T02:15:16;27.45;;;14.35;;
52015;SDS011;38032;53.326;6.472;2023-02-22T02:17:53;26.37;;;14.13;;
52015;SDS011;38032;53.326;6.472;2023-02-22T02:20:28;25.73;;;13.63;;
52015;SDS011;38032;53.326;6.472;2023-02-22T02:28:52;24.10;;;12.35;;
52015;SDS011;38032;53.326;6.472;2023-02-22T02:34:03;25.38;;;12.88;;
52015;SDS011;38032;53.326;6.472;2023-02-22T02:36:43;24.20;;;13.55;;
52015;SDS011;38032;53.326;6.472;2023-02-22T02:39:29;22.70;;;12.50;;
52015;SDS011;38032;53.326;6.472;2023-02-22T02:42:10;22.38;;;12.23;;
52015;SDS011;38032;53.326;6.472;2023-02-22T02:44:48;22.92;;;12.35;;
52015;SDS011;38032;53.326;6.472;2023-02-22T02:47:27;24.50;;;12.75;;
52015;SDS011;38032;53.326;6.472;2023-02-22T02:50:04;24.35;;;12.88;;
52015;SDS011;38032;53.326;6.472;2023-02-22T02:52:35;23.85;;;12.88;;
52015;SDS011;38032;53.326;6.472;2023-02-22T02:55:05;22.33;;;11.90;;
52015;SDS011;38032;53.326;6.472;2023-02-22T02:57:35;25.75;;;13.77;;
52015;SDS011;38032;53.326;6.472;2023-02-22T03:00:03;22.48;;;12.50;;
52015;SDS011;38032;53.326;6.472;2023-02-22T03:21:16;24.33;;;13.93;;
52015;SDS011;38032;53.326;6.472;2023-02-22T03:23:49;25.00;;;13.65;;
52015;SDS011;38032;53.326;6.472;2023-02-22T03:26:28;26.75;;;14.70;;
52015;SDS011;38032;53.326;6.472;2023-02-22T03:28:59;27.20;;;14.35;;
52015;SDS011;38032;53.326;6.472;2023-02-22T03:31:30;27.33;;;15.02;;
52015;SDS011;38032;53.326;6.472;2023-02-22T03:34:04;26.15;;;14.50;;
52015;SDS011;38032;53.326;6.472;2023-02-22T03:36:36;27.92;;;14.95;;
52015;SDS011;38032;53.326;6.472;2023-02-22T03:39:08;27.20;;;14.73;;
52015;SDS011;38032;53.326;6.472;2023-02-22T03:41:40;27.67;;;14.30;;
52015;SDS011;38032;53.326;6.472;2023-02-22T03:44:13;22.95;;;13.15;;
52015;SDS011;38032;53.326;6.472;2023-02-22T03:46:43;27.48;;;14.57;;
52015;SDS011;38032;53.326;6.472;2023-02-22T03:51:59;27.65;;;15.13;;
52015;SDS011;38032;53.326;6.472;2023-02-22T03:54:27;27.63;;;14.50;;
52015;SDS011;38032;53.326;6.472;2023-02-22T03:56:55;28.48;;;16.30;;
52015;SDS011;38032;53.326;6.472;2023-02-22T03:59:24;26.35;;;14.98;;
52015;SDS011;38032;53.326;6.472;2023-02-22T04:01:52;25.98;;;14.90;;
52015;SDS011;38032;53.326;6.472;2023-02-22T04:04:19;26.77;;;14.73;;
52015;SDS011;38032;53.326;6.472;2023-02-22T04:06:45;28.92;;;15.05;;
52015;SDS011;38032;53.326;6.472;2023-02-22T04:09:12;25.48;;;15.20;;
52015;SDS011;38032;53.326;6.472;2023-02-22T04:11:39;29.30;;;14.82;;
52015;SDS011;38032;53.326;6.472;2023-02-22T04:14:04;29.17;;;15.25;;
52015;SDS011;38032;53.326;6.472;2023-02-22T04:16:30;27.45;;;14.80;;
52015;SDS011;38032;53.326;6.472;2023-02-22T04:18:56;27.92;;;15.32;;
52015;SDS011;38032;53.326;6.472;2023-02-22T04:21:22;27.35;;;15.32;;
52015;SDS011;38032;53.326;6.472;2023-02-22T04:23:48;27.60;;;15.57;;
52015;SDS011;38032;53.326;6.472;2023-02-22T04:26:14;28.45;;;15.65;;
52015;SDS011;38032;53.326;6.472;2023-02-22T04:28:40;28.35;;;15.57;;
52015;SDS011;38032;53.326;6.472;2023-02-22T04:31:06;26.30;;;14.70;;
52015;SDS011;38032;53.326;6.472;2023-02-22T04:33:32;26.35;;;14.95;;
52015;SDS011;38032;53.326;6.472;2023-02-22T04:35:58;28.23;;;14.85;;
52015;SDS011;38032;53.326;6.472;2023-02-22T04:38:25;28.52;;;15.75;;
52015;SDS011;38032;53.326;6.472;2023-02-22T04:40:51;27.67;;;15.50;;
52015;SDS011;38032;53.326;6.472;2023-02-22T04:43:19;27.73;;;15.02;;
52015;SDS011;38032;53.326;6.472;2023-02-22T04:45:45;27.90;;;16.08;;
52015;SDS011;38032;53.326;6.472;2023-02-22T04:48:11;27.42;;;15.00;;
52015;SDS011;38032;53.326;6.472;2023-02-22T04:50:37;28.45;;;15.77;;
52015;SDS011;38032;53.326;6.472;2023-02-22T04:53:04;27.65;;;15.45;;
52015;SDS011;38032;53.326;6.472;2023-02-22T04:55:30;30.05;;;15.98;;
52015;SDS011;38032;53.326;6.472;2023-02-22T04:57:56;26.70;;;15.98;;
52015;SDS011;38032;53.326;6.472;2023-02-22T05:00:22;30.67;;;15.85;;
52015;SDS011;38032;53.326;6.472;2023-02-22T05:02:48;30.55;;;16.70;;
52015;SDS011;38032;53.326;6.472;2023-02-22T05:05:16;28.70;;;15.77;;
52015;SDS011;38032;53.326;6.472;2023-02-22T05:07:43;28.23;;;15.95;;
52015;SDS011;38032;53.326;6.472;2023-02-22T05:10:09;29.50;;;16.15;;
52015;SDS011;38032;53.326;6.472;2023-02-22T05:12:36;29.63;;;16.25;;
52015;SDS011;38032;53.326;6.472;2023-02-22T05:15:03;28.42;;;15.23;;
52015;SDS011;38032;53.326;6.472;2023-02-22T05:17:30;30.00;;;16.27;;
52015;SDS011;38032;53.326;6.472;2023-02-22T05:19:56;29.63;;;16.75;;
52015;SDS011;38032;53.326;6.472;2023-02-22T05:22:22;27.15;;;16.33;;
52015;SDS011;38032;53.326;6.472;2023-02-22T05:24:48;28.92;;;16.88;;
52015;SDS011;38032;53.326;6.472;2023-02-22T05:27:16;27.55;;;15.85;;
52015;SDS011;38032;53.326;6.472;2023-02-22T05:29:43;32.25;;;17.15;;
52015;SDS011;38032;53.326;6.472;2023-02-22T05:32:09;29.20;;;16.05;;
52015;SDS011;38032;53.326;6.472;2023-02-22T05:34:37;33.88;;;16.70;;
52015;SDS011;38032;53.326;6.472;2023-02-22T05:37:03;31.00;;;16.98;;
52015;SDS011;38032;53.326;6.472;2023-02-22T05:39:29;33.00;;;16.90;;
52015;SDS011;38032;53.326;6.472;2023-02-22T05:41:55;34.97;;;18.40;;
52015;SDS011;38032;53.326;6.472;2023-02-22T05:44:22;33.47;;;18.52;;
52015;SDS011;38032;53.326;6.472;2023-02-22T05:46:48;35.03;;;18.15;;
52015;SDS011;38032;53.326;6.472;2023-02-22T05:49:14;32.38;;;17.17;;
52015;SDS011;38032;53.326;6.472;2023-02-22T05:51:40;35.50;;;18.83;;
52015;SDS011;38032;53.326;6.472;2023-02-22T05:54:06;31.77;;;17.77;;
52015;SDS011;38032;53.326;6.472;2023-02-22T05:56:32;33.60;;;18.42;;
52015;SDS011;38032;53.326;6.472;2023-02-22T05:58:58;36.47;;;18.85;;
52015;SDS011;38032;53.326;6.472;2023-02-22T06:01:24;34.30;;;18.38;;
52015;SDS011;38032;53.326;6.472;2023-02-22T06:03:51;35.63;;;19.15;;
52015;SDS011;38032;53.326;6.472;2023-02-22T06:06:17;33.70;;;18.73;;
52015;SDS011;38032;53.326;6.472;2023-02-22T06:08:44;37.20;;;20.48;;
52015;SDS011;38032;53.326;6.472;2023-02-22T06:11:11;41.17;;;20.38;;
52015;SDS011;38032;53.326;6.472;2023-02-22T06:13:37;36.90;;;19.25;;
52015;SDS011;38032;53.326;6.472;2023-02-22T06:16:04;36.88;;;19.88;;
52015;SDS011;38032;53.326;6.472;2023-02-22T06:18:30;37.10;;;19.15;;
52015;SDS011;38032;53.326;6.472;2023-02-22T06:20:57;37.03;;;19.98;;
52015;SDS011;38032;53.326;6.472;2023-02-22T06:23:24;38.35;;;20.33;;
52015;SDS011;38032;53.326;6.472;2023-02-22T06:25:50;35.97;;;19.48;;
52015;SDS011;38032;53.326;6.472;2023-02-22T06:28:16;38.35;;;20.77;;
52015;SDS011;38032;53.326;6.472;2023-02-22T06:30:43;45.63;;;22.30;;
52015;SDS011;38032;53.326;6.472;2023-02-22T06:33:09;43.70;;;20.98;;
52015;SDS011;38032;53.326;6.472;2023-02-22T06:35:35;43.78;;;23.38;;
52015;SDS011;38032;53.326;6.472;2023-02-22T06:38:01;41.20;;;22.52;;
52015;SDS011;38032;53.326;6.472;2023-02-22T06:40:27;42.35;;;23.33;;
52015;SDS011;38032;53.326;6.472;2023-02-22T06:42:53;47.28;;;23.70;;
52015;SDS011;38032;53.326;6.472;2023-02-22T06:45:20;41.85;;;21.42;;
52015;SDS011;38032;53.326;6.472;2023-02-22T06:47:46;42.88;;;22.48;;
52015;SDS011;38032;53.326;6.472;2023-02-22T06:50:19;44.53;;;24.08;;
52015;SDS011;38032;53.326;6.472;2023-02-22T06:52:46;43.78;;;23.08;;
52015;SDS011;38032;53.326;6.472;2023-02-22T06:55:15;40.45;;;22.05;;
52015;SDS011;38032;53.326;6.472;2023-02-22T06:57:42;41.17;;;21.70;;
52015;SDS011;38032;53.326;6.472;2023-02-22T07:00:08;46.92;;;23.67;;
52015;SDS011;38032;53.326;6.472;2023-02-22T07:02:35;47.90;;;25.10;;
52015;SDS011;38032;53.326;6.472;2023-02-22T07:05:01;52.10;;;27.77;;
52015;SDS011;38032;53.326;6.472;2023-02-22T07:07:27;53.72;;;25.60;;
52015;SDS011;38032;53.326;6.472;2023-02-22T07:09:53;48.10;;;25.50;;
52015;SDS011;38032;53.326;6.472;2023-02-22T07:12:19;49.08;;;25.90;;
52015;SDS011;38032;53.326;6.472;2023-02-22T07:14:45;51.95;;;26.58;;
52015;SDS011;38032;53.326;6.472;2023-02-22T07:17:11;46.85;;;24.65;;
52015;SDS011;38032;53.326;6.472;2023-02-22T07:19:37;50.78;;;26.23;;
52015;SDS011;38032;53.326;6.472;2023-02-22T07:22:03;49.65;;;25.40;;
52015;SDS011;38032;53.326;6.472;2023-02-22T07:24:30;50.28;;;24.42;;
52015;SDS011;38032;53.326;6.472;2023-02-22T07:26:59;51.70;;;26.52;;
52015;SDS011;38032;53.326;6.472;2023-02-22T07:29:26;53.47;;;25.98;;
52015;SDS011;38032;53.326;6.472;2023-02-22T07:31:52;47.00;;;25.17;;
52015;SDS011;38032;53.326;6.472;2023-02-22T07:34:18;49.22;;;24.83;;
52015;SDS011;38032;53.326;6.472;2023-02-22T07:36:44;50.78;;;26.38;;
52015;SDS011;38032;53.326;6.472;2023-02-22T07:39:10;52.38;;;27.27;;
52015;SDS011;38032;53.326;6.472;2023-02-22T07:41:36;49.72;;;25.17;;
52015;SDS011;38032;53.326;6.472;2023-02-22T07:44:01;50.60;;;25.40;;
52015;SDS011;38032;53.326;6.472;2023-02-22T07:46:27;50.15;;;26.30;;
52015;SDS011;38032;53.326;6.472;2023-02-22T07:48:54;54.33;;;27.40;;
52015;SDS011;38032;53.326;6.472;2023-02-22T07:51:19;59.45;;;29.27;;
52015;SDS011;38032;53.326;6.472;2023-02-22T07:53:45;56.72;;;28.45;;
52015;SDS011;38032;53.326;6.472;2023-02-22T07:56:13;62.03;;;29.58;;
52015;SDS011;38032;53.326;6.472;2023-02-22T07:58:38;61.90;;;30.92;;
52015;SDS011;38032;53.326;6.472;2023-02-22T08:01:04;58.97;;;29.23;;
52015;SDS011;38032;53.326;6.472;2023-02-22T08:03:31;65.40;;;30.63;;
52015;SDS011;38032;53.326;6.472;2023-02-22T08:06:00;59.28;;;28.33;;
52015;SDS011;38032;53.326;6.472;2023-02-22T08:08:27;61.63;;;29.85;;
52015;SDS011;38032;53.326;6.472;2023-02-22T08:10:53;67.68;;;30.95;;
52015;SDS011;38032;53.326;6.472;2023-02-22T08:13:20;66.75;;;31.73;;
52015;SDS011;38032;53.326;6.472;2023-02-22T08:15:47;70.75;;;32.65;;
52015;SDS011;38032;53.326;6.472;2023-02-22T08:18:16;62.92;;;30.15;;
52015;SDS011;38032;53.326;6.472;2023-02-22T08:20:43;66.78;;;31.17;;
52015;SDS011;38032;53.326;6.472;2023-02-22T08:23:12;66.55;;;30.83;;
52015;SDS011;38032;53.326;6.472;2023-02-22T08:25:39;66.40;;;31.33;;
52015;SDS011;38032;53.326;6.472;2023-02-22T08:28:07;70.53;;;32.90;;
52015;SDS011;38032;53.326;6.472;2023-02-22T08:30:37;66.95;;;31.02;;
52015;SDS011;38032;53.326;6.472;2023-02-22T08:33:04;72.75;;;33.22;;
52015;SDS011;38032;53.326;6.472;2023-02-22T08:35:30;72.25;;;33.95;;
52015;SDS011;38032;53.326;6.472;2023-02-22T08:38:01;66.05;;;32.90;;
52015;SDS011;38032;53.326;6.472;2023-02-22T08:40:29;70.90;;;33.42;;
52015;SDS011;38032;53.326;6.472;2023-02-22T08:42:57;69.25;;;31.95;;
52015;SDS011;38032;53.326;6.472;2023-02-22T08:45:23;71.63;;;32.33;;
52015;SDS011;38032;53.326;6.472;2023-02-22T08:47:49;70.00;;;32.85;;
52015;SDS011;38032;53.326;6.472;2023-02-22T08:50:17;65.85;;;32.25;;
52015;SDS011;38032;53.326;6.472;2023-02-22T08:52:45;67.32;;;32.95;;
52015;SDS011;38032;53.326;6.472;2023-02-22T08:55:11;65.00;;;32.47;;
52015;SDS011;38032;53.326;6.472;2023-02-22T08:57:37;70.40;;;33.25;;
52015;SDS011;38032;53.326;6.472;2023-02-22T09:00:03;65.75;;;31.08;;
52015;SDS011;38032;53.326;6.472;2023-02-22T09:02:30;63.15;;;32.05;;
52015;SDS011;38032;53.326;6.472;2023-02-22T09:04:56;68.43;;;31.77;;
52015;SDS011;38032;53.326;6.472;2023-02-22T09:07:22;67.43;;;31.90;;
52015;SDS011;38032;53.326;6.472;2023-02-22T09:09:48;68.55;;;32.53;;
52015;SDS011;38032;53.326;6.472;2023-02-22T09:12:14;63.75;;;32.40;;
52015;SDS011;38032;53.326;6.472;2023-02-22T09:14:40;66.80;;;32.25;;
52015;SDS011;38032;53.326;6.472;2023-02-22T09:17:07;66.43;;;31.63;;
52015;SDS011;38032;53.326;6.472;2023-02-22T09:19:33;67.80;;;32.70;;
52015;SDS011;38032;53.326;6.472;2023-02-22T09:21:59;76.53;;;34.42;;
52015;SDS011;38032;53.326;6.472;2023-02-22T09:24:25;67.10;;;32.88;;
52015;SDS011;38032;53.326;6.472;2023-02-22T09:26:51;69.63;;;33.28;;
52015;SDS011;38032;53.326;6.472;2023-02-22T09:29:19;68.53;;;32.63;;
52015;SDS011;38032;53.326;6.472;2023-02-22T09:31:47;66.43;;;32.38;;
52015;SDS011;38032;53.326;6.472;2023-02-22T09:34:14;71.90;;;34.08;;
52015;SDS011;38032;53.326;6.472;2023-02-22T09:36:42;68.60;;;33.10;;
52015;SDS011;38032;53.326;6.472;2023-02-22T09:39:10;74.43;;;35.13;;
52015;SDS011;38032;53.326;6.472;2023-02-22T09:41:39;70.65;;;34.70;;
52015;SDS011;38032;53.326;6.472;2023-02-22T09:44:19;65.95;;;32.75;;
52015;SDS011;38032;53.326;6.472;2023-02-22T09:46:51;69.20;;;33.50;;
52015;SDS011;38032;53.326;6.472;2023-02-22T09:49:31;72.78;;;34.03;;
52015;SDS011;38032;53.326;6.472;2023-02-22T09:52:10;66.55;;;33.17;;
52015;SDS011;38032;53.326;6.472;2023-02-22T09:54:44;64.97;;;32.00;;
52015;SDS011;38032;53.326;6.472;2023-02-22T09:57:18;74.65;;;34.97;;
52015;SDS011;38032;53.326;6.472;2023-02-22T10:02:39;66.28;;;32.22;;
52015;SDS011;38032;53.326;6.472;2023-02-22T10:05:17;74.40;;;34.45;;
52015;SDS011;38032;53.326;6.472;2023-02-22T10:07:54;65.45;;;33.17;;
52015;SDS011;38032;53.326;6.472;2023-02-22T10:10:25;70.07;;;33.40;;
52015;SDS011;38032;53.326;6.472;2023-02-22T10:13:17;65.13;;;33.47;;
52015;SDS011;38032;53.326;6.472;2023-02-22T10:18:37;69.75;;;35.28;;
52015;SDS011;38032;53.326;6.472;2023-02-22T10:24:05;70.05;;;34.35;;
52015;SDS011;38032;53.326;6.472;2023-02-22T10:26:39;73.40;;;33.85;;
52015;SDS011;38032;53.326;6.472;2023-02-22T10:29:17;68.18;;;32.03;;
52015;SDS011;38032;53.326;6.472;2023-02-22T10:32:02;66.15;;;32.10;;
52015;SDS011;38032;53.326;6.472;2023-02-22T10:34:30;75.38;;;34.85;;
52015;SDS011;38032;53.326;6.472;2023-02-22T10:37:09;62.63;;;30.13;;
52015;SDS011;38032;53.326;6.472;2023-02-22T10:39:55;66.95;;;31.80;;
52015;SDS011;38032;53.326;6.472;2023-02-22T10:42:29;61.08;;;29.05;;
52015;SDS011;38032;53.326;6.472;2023-02-22T10:44:55;66.03;;;30.17;;
52015;SDS011;38032;53.326;6.472;2023-02-22T10:47:21;67.70;;;32.45;;
52015;SDS011;38032;53.326;6.472;2023-02-22T10:49:50;63.15;;;30.08;;
52015;SDS011;38032;53.326;6.472;2023-02-22T10:54:50;59.33;;;29.10;;
52015;SDS011;38032;53.326;6.472;2023-02-22T10:57:20;67.88;;;31.75;;
52015;SDS011;38032;53.326;6.472;2023-02-22T10:59:49;69.40;;;32.20;;
52015;SDS011;38032;53.326;6.472;2023-02-22T11:02:18;65.72;;;29.85;;
52015;SDS011;38032;53.326;6.472;2023-02-22T11:04:50;65.22;;;30.42;;
52015;SDS011;38032;53.326;6.472;2023-02-22T11:07:19;67.13;;;32.83;;
52015;SDS011;38032;53.326;6.472;2023-02-22T11:09:52;68.53;;;32.03;;
52015;SDS011;38032;53.326;6.472;2023-02-22T11:12:25;63.85;;;31.15;;
52015;SDS011;38032;53.326;6.472;2023-02-22T11:14:53;67.70;;;32.50;;
52015;SDS011;38032;53.326;6.472;2023-02-22T11:17:23;59.65;;;30.48;;
52015;SDS011;38032;53.326;6.472;2023-02-22T11:19:54;61.88;;;30.77;;
52015;SDS011;38032;53.326;6.472;2023-02-22T11:22:22;63.08;;;31.42;;
52015;SDS011;38032;53.326;6.472;2023-02-22T11:24:56;64.00;;;30.13;;
52015;SDS011;38032;53.326;6.472;2023-02-22T11:27:28;63.20;;;30.35;;
52015;SDS011;38032;53.326;6.472;2023-02-22T11:30:05;58.75;;;29.27;;
52015;SDS011;38032;53.326;6.472;2023-02-22T11:32:33;59.10;;;29.48;;
52015;SDS011;38032;53.326;6.472;2023-02-22T11:35:17;56.55;;;29.70;;
52015;SDS011;38032;53.326;6.472;2023-02-22T11:37:52;58.55;;;29.23;;
52015;SDS011;38032;53.326;6.472;2023-02-22T11:40:20;62.72;;;31.35;;
52015;SDS011;38032;53.326;6.472;2023-02-22T11:42:47;62.28;;;30.77;;
52015;SDS011;38032;53.326;6.472;2023-02-22T11:45:29;61.78;;;30.38;;
52015;SDS011;38032;53.326;6.472;2023-02-22T11:47:57;61.13;;;30.58;;
52015;SDS011;38032;53.326;6.472;2023-02-22T11:50:29;62.42;;;30.45;;
52015;SDS011;38032;53.326;6.472;2023-02-22T11:53:11;61.78;;;29.67;;
52015;SDS011;38032;53.326;6.472;2023-02-22T11:55:52;59.10;;;30.23;;
52015;SDS011;38032;53.326;6.472;2023-02-22T11:58:29;64.35;;;30.80;;
52015;SDS011;38032;53.326;6.472;2023-02-22T12:01:10;56.20;;;29.15;;
52015;SDS011;38032;53.326;6.472;2023-02-22T12:04:05;59.20;;;29.52;;
52015;SDS011;38032;53.326;6.472;2023-02-22T12:12:17;62.58;;;29.77;;
52015;SDS011;38032;53.326;6.472;2023-02-22T12:15:02;62.30;;;31.17;;
52015;SDS011;38032;53.326;6.472;2023-02-22T12:17:37;64.95;;;31.73;;
52015;SDS011;38032;53.326;6.472;2023-02-22T12:20:18;63.30;;;30.50;;
52015;SDS011;38032;53.326;6.472;2023-02-22T12:22:57;56.08;;;27.85;;
52015;SDS011;38032;53.326;6.472;2023-02-22T12:25:33;64.55;;;31.48;;
52015;SDS011;38032;53.326;6.472;2023-02-22T12:28:09;67.15;;;30.85;;
52015;SDS011;38032;53.326;6.472;2023-02-22T12:30:45;64.50;;;30.33;;
52015;SDS011;38032;53.326;6.472;2023-02-22T12:33:21;62.47;;;30.65;;
52015;SDS011;38032;53.326;6.472;2023-02-22T12:35:53;58.50;;;30.25;;
52015;SDS011;38032;53.326;6.472;2023-02-22T12:38:24;65.45;;;31.38;;
52015;SDS011;38032;53.326;6.472;2023-02-22T12:41:04;63.78;;;32.28;;
52015;SDS011;38032;53.326;6.472;2023-02-22T12:43:38;66.70;;;30.55;;
52015;SDS011;38032;53.326;6.472;2023-02-22T12:46:09;62.58;;;30.35;;
52015;SDS011;38032;53.326;6.472;2023-02-22T12:51:18;57.30;;;28.67;;
52015;SDS011;38032;53.326;6.472;2023-02-22T12:54:06;59.30;;;30.52;;
52015;SDS011;38032;53.326;6.472;2023-02-22T12:56:47;59.38;;;28.55;;
52015;SDS011;38032;53.326;6.472;2023-02-22T12:59:17;63.83;;;30.73;;
52015;SDS011;38032;53.326;6.472;2023-02-22T13:01:49;70.47;;;34.10;;
52015;SDS011;38032;53.326;6.472;2023-02-22T13:04:19;65.65;;;31.88;;
52015;SDS011;38032;53.326;6.472;2023-02-22T13:06:49;61.10;;;30.25;;
52015;SDS011;38032;53.326;6.472;2023-02-22T13:17:53;63.33;;;30.85;;
52015;SDS011;38032;53.326;6.472;2023-02-22T13:23:08;59.42;;;29.17;;
52015;SDS011;38032;53.326;6.472;2023-02-22T13:25:48;69.45;;;32.90;;
52015;SDS011;38032;53.326;6.472;2023-02-22T13:33:35;68.43;;;31.25;;
52015;SDS011;38032;53.326;6.472;2023-02-22T13:36:13;64.28;;;30.48;;
52015;SDS011;38032;53.326;6.472;2023-02-22T13:49:35;65.60;;;30.40;;
52015;SDS011;38032;53.326;6.472;2023-02-22T13:52:16;65.57;;;31.05;;
52015;SDS011;38032;53.326;6.472;2023-02-22T13:54:49;69.35;;;32.28;;
52015;SDS011;38032;53.326;6.472;2023-02-22T13:57:21;64.28;;;30.02;;
52015;SDS011;38032;53.326;6.472;2023-02-22T14:00:37;67.97;;;31.25;;
52015;SDS011;38032;53.326;6.472;2023-02-22T14:03:06;64.05;;;29.73;;
52015;SDS011;38032;53.326;6.472;2023-02-22T14:05:54;68.13;;;31.50;;
52015;SDS011;38032;53.326;6.472;2023-02-22T14:10:52;64.60;;;29.92;;
52015;SDS011;38032;53.326;6.472;2023-02-22T14:13:20;66.63;;;29.65;;
52015;SDS011;38032;53.326;6.472;2023-02-22T14:18:28;66.80;;;28.65;;
52015;SDS011;38032;53.326;6.472;2023-02-22T14:21:08;61.88;;;29.30;;
52015;SDS011;38032;53.326;6.472;2023-02-22T14:23:37;59.58;;;27.17;;
52015;SDS011;38032;53.326;6.472;2023-02-22T14:26:19;60.42;;;26.52;;
52015;SDS011;38032;53.326;6.472;2023-02-22T14:31:19;62.58;;;27.15;;
52015;SDS011;38032;53.326;6.472;2023-02-22T14:36:17;62.88;;;26.38;;
52015;SDS011;38032;53.326;6.472;2023-02-22T14:38:46;60.40;;;26.42;;
52015;SDS011;38032;53.326;6.472;2023-02-22T14:41:14;61.28;;;25.95;;
52015;SDS011;38032;53.326;6.472;2023-02-22T14:43:41;64.65;;;27.20;;
52015;SDS011;38032;53.326;6.472;2023-02-22T14:46:09;55.13;;;25.00;;
52015;SDS011;38032;53.326;6.472;2023-02-22T14:48:42;64.93;;;27.00;;
52015;SDS011;38032;53.326;6.472;2023-02-22T14:51:12;62.10;;;26.50;;
52015;SDS011;38032;53.326;6.472;2023-02-22T14:56:24;65.95;;;27.30;;
52015;SDS011;38032;53.326;6.472;2023-02-22T15:01:28;62.85;;;26.10;;
52015;SDS011;38032;53.326;6.472;2023-02-22T15:06:46;63.58;;;26.20;;
52015;SDS011;38032;53.326;6.472;2023-02-22T15:09:13;68.03;;;28.13;;
52015;SDS011;38032;53.326;6.472;2023-02-22T15:11:49;62.17;;;26.20;;
52015;SDS011;38032;53.326;6.472;2023-02-22T15:14:18;56.22;;;25.50;;
52015;SDS011;38032;53.326;6.472;2023-02-22T15:16:49;66.43;;;27.20;;
52015;SDS011;38032;53.326;6.472;2023-02-22T15:19:20;61.22;;;26.15;;
52015;SDS011;38032;53.326;6.472;2023-02-22T15:21:51;58.22;;;26.27;;
52015;SDS011;38032;53.326;6.472;2023-02-22T15:24:20;64.63;;;26.83;;
52015;SDS011;38032;53.326;6.472;2023-02-22T15:26:49;58.97;;;25.67;;
52015;SDS011;38032;53.326;6.472;2023-02-22T15:29:17;63.80;;;26.65;;
52015;SDS011;38032;53.326;6.472;2023-02-22T15:31:47;58.67;;;25.65;;
52015;SDS011;38032;53.326;6.472;2023-02-22T15:36:46;59.97;;;24.83;;
52015;SDS011;38032;53.326;6.472;2023-02-22T15:39:19;61.08;;;26.45;;
52015;SDS011;38032;53.326;6.472;2023-02-22T15:42:04;60.28;;;25.35;;
52015;SDS011;38032;53.326;6.472;2023-02-22T15:44:46;61.00;;;24.98;;
52015;SDS011;38032;53.326;6.472;2023-02-22T15:47:16;57.83;;;24.98;;
52015;SDS011;38032;53.326;6.472;2023-02-22T15:49:44;59.90;;;25.27;;
52015;SDS011;38032;53.326;6.472;2023-02-22T15:52:19;62.83;;;26.13;;
52015;SDS011;38032;53.326;6.472;2023-02-22T15:54:48;64.55;;;26.23;;
52015;SDS011;38032;53.326;6.472;2023-02-22T15:57:16;58.30;;;26.02;;
52015;SDS011;38032;53.326;6.472;2023-02-22T15:59:46;59.13;;;26.52;;
52015;SDS011;38032;53.326;6.472;2023-02-22T16:02:19;60.55;;;25.58;;
52015;SDS011;38032;53.326;6.472;2023-02-22T16:05:00;53.88;;;25.27;;
52015;SDS011;38032;53.326;6.472;2023-02-22T16:07:29;61.00;;;26.05;;
52015;SDS011;38032;53.326;6.472;2023-02-22T16:09:55;61.28;;;26.20;;
52015;SDS011;38032;53.326;6.472;2023-02-22T16:12:23;60.67;;;26.20;;
52015;SDS011;38032;53.326;6.472;2023-02-22T16:14:51;50.97;;;24.33;;
52015;SDS011;38032;53.326;6.472;2023-02-22T16:19:57;57.05;;;25.92;;